createdAt,value
2023-05-01T00:00:28.751Z,7.80
2023-05-01T00:02:56.542Z,9.48
2023-05-01T00:05:23.665Z,6.70
2023-05-01T00:07:50.941Z,10.57
2023-05-01T00:10:19.561Z,8.82
2023-05-01T00:12:46.582Z,6.53
2023-05-01T00:15:13.307Z,7.55
2023-05-01T00:17:40.100Z,10.38
2023-05-01T00:20:07.854Z,8.23
2023-05-01T00:22:34.627Z,8.27
2023-05-01T00:25:01.315Z,8.20
2023-05-01T00:27:28.114Z,6.70
2023-05-01T00:29:55.333Z,10.27
2023-05-01T00:32:22.425Z,7.00
2023-05-01T00:34:49.816Z,9.30
2023-05-01T00:37:17.447Z,7.47
2023-05-01T00:39:44.454Z,8.57
2023-05-01T00:42:11.362Z,7.55
2023-05-01T00:44:38.441Z,7.38
2023-05-01T00:47:05.292Z,6.60
2023-05-01T00:49:32.453Z,7.72
2023-05-01T00:51:59.704Z,9.23
2023-05-01T00:54:28.205Z,6.97
2023-05-01T00:56:55.634Z,9.35
2023-05-01T00:59:22.560Z,8.45
2023-05-01T01:01:52.789Z,7.30
2023-05-01T01:04:24.198Z,6.68
2023-05-01T01:07:10.523Z,8.95
2023-05-01T01:10:05.232Z,10.23
2023-05-01T01:12:49.229Z,9.40
2023-05-01T01:15:22.095Z,9.63
2023-05-01T01:17:59.378Z,6.70
2023-05-01T01:20:44.453Z,7.38
2023-05-01T01:23:42.168Z,6.57
2023-05-01T01:26:23.962Z,7.22
2023-05-01T01:29:15.917Z,8.73
2023-05-01T01:31:48.865Z,8.10
2023-05-01T01:34:17.752Z,9.10
2023-05-01T01:36:51.409Z,13.35
2023-05-01T01:39:29.524Z,7.90
2023-05-01T01:41:59.262Z,10.10
2023-05-01T01:44:34.646Z,9.32
2023-05-01T01:47:11.561Z,7.35
2023-05-01T01:49:44.314Z,7.75
2023-05-01T01:52:14.355Z,8.85
2023-05-01T01:54:47.157Z,10.70
2023-05-01T01:57:16.539Z,11.25
2023-05-01T01:59:44.625Z,10.13
2023-05-01T02:02:12.111Z,10.65
2023-05-01T02:04:40.841Z,8.07
2023-05-01T02:07:09.300Z,11.38
2023-05-01T02:09:37.257Z,13.57
2023-05-01T02:12:06.898Z,11.80
2023-05-01T02:14:35.309Z,10.73
2023-05-01T02:17:02.857Z,8.65
2023-05-01T02:19:32.165Z,9.80
2023-05-01T02:22:01.098Z,9.27
2023-05-01T02:24:29.992Z,9.93
2023-05-01T02:27:07.369Z,13.27
2023-05-01T02:29:34.963Z,10.15
2023-05-01T02:32:01.932Z,9.52
2023-05-01T02:34:28.813Z,10.23
2023-05-01T02:36:55.541Z,8.15
2023-05-01T02:39:22.685Z,8.30
2023-05-01T02:41:52.511Z,9.77
2023-05-01T02:44:20.144Z,11.75
2023-05-01T02:46:49.675Z,9.45
2023-05-01T02:49:18.684Z,12.55
2023-05-01T02:51:46.679Z,11.93
2023-05-01T02:54:14.280Z,8.80
2023-05-01T02:56:42.306Z,10.80
2023-05-01T02:59:09.167Z,9.35
2023-05-01T03:01:35.891Z,8.85
2023-05-01T03:04:02.825Z,8.20
2023-05-01T03:06:31.047Z,15.05
2023-05-01T03:08:57.865Z,9.18
2023-05-01T03:11:24.634Z,10.70
2023-05-01T03:13:51.376Z,8.98
2023-05-01T03:16:18.526Z,9.05
2023-05-01T03:18:45.480Z,9.68
2023-05-01T03:21:12.793Z,9.55
2023-05-01T03:23:39.664Z,7.75
2023-05-01T03:26:07.937Z,9.68
2023-05-01T03:28:34.886Z,8.93
2023-05-01T03:31:02.509Z,8.00
2023-05-01T03:33:31.605Z,11.93
2023-05-01T03:36:05.474Z,9.60
2023-05-01T03:38:33.744Z,11.50
2023-05-01T03:41:09.723Z,10.30
2023-05-01T03:43:36.459Z,8.45
2023-05-01T03:46:08.475Z,8.23
2023-05-01T03:48:35.228Z,7.43
2023-05-01T03:51:02.008Z,9.90
2023-05-01T03:53:28.933Z,9.88
2023-05-01T03:55:57.331Z,11.73
2023-05-01T03:58:24.407Z,6.95
2023-05-01T04:00:51.678Z,7.25
2023-05-01T04:03:18.707Z,12.35
2023-05-01T04:05:47.848Z,9.57
2023-05-01T04:08:14.621Z,7.75
2023-05-01T04:10:41.326Z,8.80
2023-05-01T04:13:08.284Z,7.97
2023-05-01T04:15:35.301Z,11.38
2023-05-01T04:18:02.830Z,10.32
2023-05-01T04:20:29.654Z,10.48
2023-05-01T04:22:56.520Z,9.18
2023-05-01T04:25:25.920Z,6.70
2023-05-01T04:27:59.604Z,7.85
2023-05-01T04:30:26.724Z,9.25
2023-05-01T04:32:56.920Z,12.27
2023-05-01T04:35:24.422Z,9.82
2023-05-01T04:37:51.833Z,8.00
2023-05-01T04:40:22.007Z,8.18
2023-05-01T04:42:49.491Z,9.23
2023-05-01T04:45:17.086Z,11.60
2023-05-01T04:47:46.873Z,8.05
2023-05-01T04:50:14.369Z,9.15
2023-05-01T04:52:41.211Z,8.05
2023-05-01T04:55:09.641Z,10.63
2023-05-01T04:57:43.114Z,8.43
2023-05-01T05:00:10.920Z,10.63
2023-05-01T05:02:47.233Z,11.45
2023-05-01T05:05:15.492Z,10.10
2023-05-01T05:07:42.455Z,10.85
2023-05-01T05:10:29.092Z,13.07
2023-05-01T05:13:20.794Z,12.32
2023-05-01T05:15:54.964Z,14.65
2023-05-01T05:18:23.736Z,11.40
2023-05-01T05:20:51.450Z,8.38
2023-05-01T05:23:18.575Z,8.55
2023-05-01T05:25:45.318Z,10.07
2023-05-01T05:28:12.035Z,7.75
2023-05-01T05:30:39.341Z,12.77
2023-05-01T05:33:08.968Z,10.90
2023-05-01T05:35:36.836Z,9.13
2023-05-01T05:38:04.174Z,13.32
2023-05-01T05:40:35.007Z,12.05
2023-05-01T05:43:01.831Z,8.60
2023-05-01T05:45:33.744Z,11.20
2023-05-01T05:48:01.317Z,10.68
2023-05-01T05:50:30.582Z,9.80
2023-05-01T05:52:58.523Z,9.48
2023-05-01T05:55:26.002Z,9.15
2023-05-01T05:58:03.928Z,9.63
2023-05-01T06:00:32.506Z,10.32
2023-05-01T06:05:32.407Z,9.50
2023-05-01T06:07:59.365Z,10.75
2023-05-01T06:10:26.625Z,8.82
2023-05-01T06:13:02.326Z,8.88
2023-05-01T06:15:43.055Z,10.25
2023-05-01T06:18:11.742Z,13.30
2023-05-01T06:20:39.044Z,8.57
2023-05-01T06:23:06.013Z,9.40
2023-05-01T06:25:51.738Z,10.02
2023-05-01T06:28:18.437Z,12.32
2023-05-01T06:30:45.371Z,9.90
2023-05-01T06:33:13.039Z,8.15
2023-05-01T06:35:42.980Z,9.07
2023-05-01T06:38:10.265Z,9.32
2023-05-01T06:40:37.340Z,10.23
2023-05-01T06:43:07.749Z,7.97
2023-05-01T06:45:34.664Z,8.73
2023-05-01T06:48:01.559Z,10.30
2023-05-01T06:50:28.941Z,9.00
2023-05-01T06:52:55.626Z,8.77
2023-05-01T06:55:22.777Z,7.82
2023-05-01T06:57:49.694Z,7.97
2023-05-01T07:00:17.548Z,10.18
2023-05-01T07:02:47.513Z,8.52
2023-05-01T07:05:14.316Z,8.88
2023-05-01T07:07:47.364Z,9.40
2023-05-01T07:10:17.656Z,10.57
2023-05-01T07:12:44.366Z,7.65
2023-05-01T07:15:11.570Z,11.27
2023-05-01T07:17:38.361Z,11.93
2023-05-01T07:20:05.827Z,8.48
2023-05-01T07:22:32.647Z,8.52
2023-05-01T07:25:01.131Z,9.23
2023-05-01T07:27:28.926Z,12.15
2023-05-01T07:29:57.758Z,7.45
2023-05-01T07:32:24.924Z,7.65
2023-05-01T07:34:51.748Z,11.05
2023-05-01T07:37:18.923Z,13.50
2023-05-01T07:39:45.865Z,8.77
2023-05-01T07:42:13.005Z,9.23
2023-05-01T07:44:39.720Z,7.35
2023-05-01T07:47:06.586Z,7.88
2023-05-01T07:49:38.392Z,12.35
2023-05-01T07:52:08.317Z,12.18
2023-05-01T07:54:35.415Z,8.38
2023-05-01T07:57:02.141Z,9.95
2023-05-01T07:59:29.386Z,10.65
2023-05-01T08:01:56.756Z,9.40
2023-05-01T08:04:23.754Z,8.32
2023-05-01T08:06:51.478Z,10.25
2023-05-01T08:09:18.388Z,9.55
2023-05-01T08:11:45.330Z,8.40
2023-05-01T08:14:12.145Z,9.10
2023-05-01T08:16:39.329Z,11.75
2023-05-01T08:19:06.189Z,7.22
2023-05-01T08:21:33.181Z,10.35
2023-05-01T08:24:00.030Z,9.95
2023-05-01T08:26:26.868Z,6.68
2023-05-01T08:28:53.636Z,6.32
2023-05-01T08:31:21.305Z,6.53
2023-05-01T08:33:48.353Z,7.53
2023-05-01T08:36:15.183Z,8.32
2023-05-01T08:38:42.094Z,7.97
2023-05-01T08:41:09.584Z,10.25
2023-05-01T08:43:36.647Z,9.45
2023-05-01T08:46:09.710Z,6.95
2023-05-01T08:48:39.702Z,6.53
2023-05-01T08:51:07.032Z,8.98
2023-05-01T08:53:34.706Z,8.98
2023-05-01T08:56:04.169Z,11.00
2023-05-01T08:58:34.253Z,7.38
2023-05-01T09:01:03.015Z,8.68
2023-05-01T09:03:33.297Z,10.77
2023-05-01T09:06:02.540Z,6.45
2023-05-01T09:08:29.389Z,8.45
2023-05-01T09:10:57.879Z,8.90
2023-05-01T09:13:26.269Z,10.60
2023-05-01T09:15:53.072Z,7.22
2023-05-01T09:18:20.044Z,6.53
2023-05-01T09:20:47.149Z,6.45
2023-05-01T09:23:13.925Z,8.05
2023-05-01T09:25:41.388Z,9.27
2023-05-01T09:28:08.419Z,7.03
2023-05-01T09:30:37.480Z,8.55
2023-05-01T09:33:12.680Z,8.18
2023-05-01T09:35:57.073Z,6.82
2023-05-01T09:38:25.297Z,8.15
2023-05-01T09:40:54.548Z,9.40
2023-05-01T09:43:28.626Z,8.70
2023-05-01T09:46:01.573Z,8.65
2023-05-01T09:48:34.802Z,7.18
2023-05-01T09:51:02.656Z,6.72
2023-05-01T09:53:39.930Z,7.55
2023-05-01T09:56:07.088Z,7.70
2023-05-01T09:58:33.916Z,5.50
2023-05-01T10:01:00.769Z,6.55
2023-05-01T10:03:28.463Z,5.05
2023-05-01T10:05:56.974Z,7.40
2023-05-01T10:08:24.080Z,7.15
2023-05-01T10:11:05.117Z,8.10
2023-05-01T10:13:34.479Z,7.53
2023-05-01T10:16:03.681Z,7.45
2023-05-01T10:18:31.166Z,6.30
2023-05-01T10:20:58.020Z,8.00
2023-05-01T10:23:25.356Z,9.52
2023-05-01T10:25:53.479Z,14.65
2023-05-01T10:28:25.209Z,8.35
2023-05-01T10:30:52.898Z,7.18
2023-05-01T10:33:22.376Z,7.63
2023-05-01T10:35:57.279Z,8.95
2023-05-01T10:38:30.467Z,7.47
2023-05-01T10:40:57.399Z,10.25
2023-05-01T10:43:28.822Z,9.52
2023-05-01T10:46:21.546Z,7.45
2023-05-01T10:51:26.537Z,8.25
2023-05-01T10:54:12.290Z,7.20
2023-05-01T10:56:38.955Z,9.77
2023-05-01T10:59:06.455Z,10.20
2023-05-01T11:01:38.119Z,9.63
2023-05-01T11:04:27.705Z,7.75
2023-05-01T11:07:10.728Z,8.52
2023-05-01T11:09:39.868Z,7.18
2023-05-01T11:12:07.736Z,9.02
2023-05-01T11:14:53.439Z,10.93
2023-05-01T11:17:42.503Z,7.05
2023-05-01T11:20:11.794Z,9.32
2023-05-01T11:22:45.752Z,10.02
2023-05-01T11:25:23.957Z,8.02
2023-05-01T11:27:55.148Z,10.52
2023-05-01T11:30:22.421Z,7.65
2023-05-01T11:32:51.191Z,8.02
2023-05-01T11:35:20.377Z,7.97
2023-05-01T11:37:47.949Z,6.43
2023-05-01T11:40:28.607Z,6.90
2023-05-01T11:43:06.084Z,5.85
2023-05-01T11:45:34.037Z,6.55
2023-05-01T11:48:04.455Z,7.22
2023-05-01T11:50:36.599Z,5.70
2023-05-01T11:53:04.962Z,6.53
2023-05-01T11:55:32.917Z,7.43
2023-05-01T11:57:59.792Z,5.22
2023-05-01T12:00:33.993Z,6.63
2023-05-01T12:03:06.642Z,6.05
2023-05-01T12:05:38.297Z,4.38
2023-05-01T12:08:11.192Z,5.07
2023-05-01T12:10:40.201Z,4.47
2023-05-01T12:13:08.898Z,5.63
2023-05-01T12:15:37.720Z,5.50
2023-05-01T12:18:08.147Z,6.40
2023-05-01T12:20:43.192Z,6.22
2023-05-01T12:23:11.868Z,8.38
2023-05-01T12:25:40.733Z,7.97
2023-05-01T12:28:13.115Z,4.13
2023-05-01T12:33:20.764Z,4.15
2023-05-01T12:35:50.682Z,8.20
2023-05-01T12:38:19.621Z,6.93
2023-05-01T12:40:54.914Z,3.78
2023-05-01T12:43:30.953Z,7.45
2023-05-01T12:45:58.548Z,6.28
2023-05-01T12:48:26.054Z,4.00
2023-05-01T12:50:56.997Z,7.22
2023-05-01T12:53:25.141Z,5.63
2023-05-01T12:55:54.368Z,4.55
2023-05-01T12:58:21.517Z,7.28
2023-05-01T13:00:52.317Z,3.58
2023-05-01T13:03:27.927Z,4.07
2023-05-01T13:06:06.078Z,3.33
2023-05-01T13:08:36.360Z,3.60
2023-05-01T13:11:14.116Z,4.80
2023-05-01T13:13:41.514Z,5.28
2023-05-01T13:16:12.282Z,5.55
2023-05-01T13:18:58.910Z,7.10
2023-05-01T13:21:26.911Z,9.23
2023-05-01T13:23:59.209Z,4.40
2023-05-01T13:26:28.762Z,6.18
2023-05-01T13:28:57.367Z,6.97
2023-05-01T13:31:24.280Z,4.90
2023-05-01T13:33:53.701Z,5.22
2023-05-01T13:36:26.238Z,4.18
2023-05-01T13:38:55.961Z,7.38
2023-05-01T13:41:27.644Z,4.00
2023-05-01T13:43:56.558Z,3.72
2023-05-01T13:46:24.952Z,6.97
2023-05-01T13:48:52.276Z,4.00
2023-05-01T13:51:24.692Z,4.95
2023-05-01T13:53:54.242Z,3.60
2023-05-01T13:56:21.924Z,4.05
2023-05-01T13:58:50.452Z,3.60
2023-05-01T14:01:21.012Z,3.97
2023-05-01T14:03:49.570Z,4.88
2023-05-01T14:06:18.624Z,3.38
2023-05-01T14:08:48.697Z,2.65
2023-05-01T14:11:16.273Z,2.97
2023-05-01T14:13:45.054Z,3.58
2023-05-01T14:16:25.065Z,2.40
2023-05-01T14:18:57.065Z,3.10
2023-05-01T14:23:55.890Z,3.58
2023-05-01T14:26:26.226Z,2.63
2023-05-01T14:28:53.101Z,6.28
2023-05-01T14:31:30.013Z,3.35
2023-05-01T14:33:58.994Z,5.28
2023-05-01T14:36:28.236Z,5.68
2023-05-01T14:39:03.117Z,2.83
2023-05-01T14:41:30.201Z,3.08
2023-05-01T14:43:57.481Z,3.47
2023-05-01T14:46:32.750Z,4.07
2023-05-01T14:49:01.129Z,4.30
2023-05-01T14:51:29.145Z,2.78
2023-05-01T14:53:56.103Z,2.90
2023-05-01T14:56:23.701Z,2.88
2023-05-01T14:58:50.512Z,2.85
2023-05-01T15:01:18.135Z,3.33
2023-05-01T15:03:48.741Z,4.85
2023-05-01T15:06:16.169Z,2.17
2023-05-01T15:08:46.027Z,2.45
2023-05-01T15:11:21.123Z,2.88
2023-05-01T15:13:50.377Z,3.88
2023-05-01T15:16:17.440Z,4.28
2023-05-01T15:18:44.261Z,3.78
2023-05-01T15:21:11.415Z,4.57
2023-05-01T15:23:40.191Z,3.22
2023-05-01T15:26:07.069Z,2.60
2023-05-01T15:28:33.883Z,3.42
2023-05-01T15:31:01.026Z,4.07
2023-05-01T15:33:28.331Z,4.70
2023-05-01T15:35:55.262Z,3.80
2023-05-01T15:38:22.223Z,2.90
2023-05-01T15:40:50.234Z,4.68
2023-05-01T15:43:17.120Z,4.60
2023-05-01T15:45:44.843Z,3.15
2023-05-01T15:48:12.032Z,3.13
2023-05-01T15:50:39.004Z,4.38
2023-05-01T15:53:05.817Z,2.83
2023-05-01T15:55:34.149Z,5.05
2023-05-01T15:58:02.220Z,3.13
2023-05-01T16:00:29.165Z,3.67
2023-05-01T16:02:56.006Z,4.07
2023-05-01T16:05:22.993Z,3.88
2023-05-01T16:07:55.768Z,2.40
2023-05-01T16:10:23.551Z,2.47
2023-05-01T16:12:53.577Z,2.40
2023-05-01T16:15:22.258Z,3.92
2023-05-01T16:17:51.629Z,3.08
2023-05-01T16:20:18.411Z,3.90
2023-05-01T16:22:45.378Z,5.68
2023-05-01T16:25:13.664Z,2.78
2023-05-01T16:27:44.079Z,3.00
2023-05-01T16:30:14.560Z,4.72
2023-05-01T16:32:43.556Z,4.20
2023-05-01T16:35:11.558Z,6.53
2023-05-01T16:37:39.670Z,6.00
2023-05-01T16:40:12.142Z,4.65
2023-05-01T16:45:08.783Z,6.13
2023-05-01T16:47:36.650Z,4.10
2023-05-01T16:50:09.630Z,4.70
2023-05-01T16:52:37.122Z,3.70
2023-05-01T16:55:04.215Z,5.55
2023-05-01T16:57:31.086Z,6.45
2023-05-01T16:59:58.131Z,4.43
2023-05-01T17:02:25.429Z,4.55
2023-05-01T17:04:52.440Z,6.15
2023-05-01T17:07:19.162Z,7.70
2023-05-01T17:09:45.938Z,6.43
2023-05-01T17:12:12.966Z,10.30
2023-05-01T17:14:39.785Z,4.38
2023-05-01T17:17:09.255Z,6.90
2023-05-01T17:19:38.990Z,5.85
2023-05-01T17:22:07.097Z,6.30
2023-05-01T17:24:35.741Z,6.38
2023-05-01T17:27:03.694Z,7.72
2023-05-01T17:29:30.682Z,6.32
2023-05-01T17:31:57.510Z,6.18
2023-05-01T17:34:24.336Z,4.25
2023-05-01T17:36:51.142Z,6.55
2023-05-01T17:39:21.780Z,4.45
2023-05-01T17:41:49.791Z,5.95
2023-05-01T17:44:16.572Z,3.95
2023-05-01T17:46:43.288Z,5.20
2023-05-01T17:49:10.118Z,6.40
2023-05-01T17:51:37.568Z,7.75
2023-05-01T17:54:06.231Z,8.27
2023-05-01T17:56:32.928Z,8.70
2023-05-01T17:58:59.962Z,10.00
2023-05-01T18:01:26.732Z,7.43
2023-05-01T18:03:54.347Z,5.93
2023-05-01T18:06:21.143Z,6.72
2023-05-01T18:08:49.871Z,5.63
2023-05-01T18:11:16.722Z,8.70
2023-05-01T18:13:47.255Z,7.38
2023-05-01T18:16:15.941Z,8.70
2023-05-01T18:18:42.960Z,10.35
2023-05-01T18:21:10.052Z,10.70
2023-05-01T18:23:37.029Z,10.98
2023-05-01T18:26:04.014Z,12.35
2023-05-01T18:28:31.596Z,7.72
2023-05-01T18:30:58.575Z,7.18
2023-05-01T18:33:25.613Z,11.07
2023-05-01T18:35:52.999Z,11.45
2023-05-01T18:38:21.363Z,8.80
2023-05-01T18:40:48.681Z,8.23
2023-05-01T18:43:16.212Z,11.43
2023-05-01T18:45:42.996Z,12.52
2023-05-01T18:48:09.915Z,11.95
2023-05-01T18:50:36.835Z,9.02
2023-05-01T18:53:03.836Z,11.88
2023-05-01T18:55:31.014Z,11.82
2023-05-01T18:57:58.242Z,12.63
2023-05-01T19:00:26.504Z,10.88
2023-05-01T19:02:53.453Z,10.38
2023-05-01T19:05:21.493Z,13.43
2023-05-01T19:07:49.320Z,12.38
2023-05-01T19:10:16.325Z,10.65
2023-05-01T19:12:43.317Z,13.07
2023-05-01T19:15:11.198Z,12.43
2023-05-01T19:17:39.423Z,12.68
2023-05-01T19:20:07.068Z,13.68
2023-05-01T19:22:33.751Z,14.75
2023-05-01T19:25:00.737Z,13.90
2023-05-01T19:27:27.831Z,15.70
2023-05-01T19:29:54.711Z,14.38
2023-05-01T19:32:21.893Z,17.38
2023-05-01T19:34:48.672Z,18.38
2023-05-01T19:37:15.624Z,16.63
2023-05-01T19:39:42.373Z,18.02
2023-05-01T19:42:09.224Z,12.07
2023-05-01T19:44:35.909Z,15.73
2023-05-01T19:47:02.999Z,15.45
2023-05-01T19:49:30.006Z,15.60
2023-05-01T19:51:57.572Z,16.73
2023-05-01T19:54:28.829Z,15.25
2023-05-01T19:56:55.913Z,16.48
2023-05-01T19:59:23.063Z,16.88
2023-05-01T20:01:50.072Z,17.60
2023-05-01T20:04:16.975Z,19.17
2023-05-01T20:06:43.975Z,19.00
2023-05-01T20:09:10.923Z,21.45
2023-05-01T20:11:37.821Z,25.00
2023-05-01T20:14:07.369Z,21.17
2023-05-01T20:16:35.685Z,23.25
2023-05-01T20:19:02.582Z,22.48
2023-05-01T20:21:29.626Z,24.92
2023-05-01T20:23:58.268Z,23.70
2023-05-01T20:26:24.999Z,22.52
2023-05-01T20:28:52.302Z,24.35
2023-05-01T20:31:19.064Z,27.60
2023-05-01T20:33:45.977Z,23.27
2023-05-01T20:36:12.871Z,22.95
2023-05-01T20:38:42.939Z,25.95
2023-05-01T20:41:10.093Z,28.20
2023-05-01T20:43:37.210Z,28.35
2023-05-01T20:46:04.056Z,24.00
2023-05-01T20:48:32.334Z,30.83
2023-05-01T20:50:59.302Z,31.48
2023-05-01T20:53:32.086Z,32.72
2023-05-01T20:55:59.065Z,32.00
2023-05-01T20:58:25.940Z,32.97
2023-05-01T21:00:56.586Z,33.38
2023-05-01T21:03:24.470Z,31.38
2023-05-01T21:05:51.627Z,33.90
2023-05-01T21:08:19.620Z,33.15
2023-05-01T21:10:46.374Z,31.40
2023-05-01T21:13:13.658Z,34.50
2023-05-01T21:15:41.475Z,35.67
2023-05-01T21:18:10.551Z,31.52
2023-05-01T21:20:38.990Z,26.27
2023-05-01T21:23:06.126Z,29.40
2023-05-01T21:25:33.095Z,27.98
2023-05-01T21:28:05.430Z,29.27
2023-05-01T21:30:36.684Z,29.80
2023-05-01T21:33:06.246Z,29.63
2023-05-01T21:35:33.517Z,27.60
2023-05-01T21:38:00.807Z,26.52
2023-05-01T21:40:33.617Z,29.00
2023-05-01T21:43:00.460Z,30.02
2023-05-01T21:45:27.269Z,26.58
2023-05-01T21:47:54.216Z,28.40
2023-05-01T21:50:21.401Z,26.08
2023-05-01T21:53:01.842Z,27.80
2023-05-01T21:55:28.917Z,26.25
2023-05-01T21:57:58.138Z,30.13
2023-05-01T22:00:28.312Z,28.83
2023-05-01T22:02:56.240Z,32.28
2023-05-01T22:05:23.665Z,29.65
2023-05-01T22:07:52.116Z,33.03
2023-05-01T22:10:19.848Z,31.17
2023-05-01T22:12:49.622Z,29.90
2023-05-01T22:15:17.626Z,30.30
2023-05-01T22:17:46.708Z,30.45
2023-05-01T22:20:14.607Z,29.60
2023-05-01T22:22:45.027Z,31.08
2023-05-01T22:25:12.129Z,30.23
2023-05-01T22:27:38.937Z,25.15
2023-05-01T22:30:06.933Z,25.75
2023-05-01T22:32:34.263Z,24.35
2023-05-01T22:35:01.270Z,29.98
2023-05-01T22:37:28.171Z,27.02
2023-05-01T22:39:55.141Z,28.23
2023-05-01T22:42:23.432Z,27.55
2023-05-01T22:44:50.165Z,27.55
2023-05-01T22:47:20.436Z,27.45
2023-05-01T22:49:48.261Z,29.42
2023-05-01T22:52:15.427Z,32.45
2023-05-01T22:54:46.125Z,31.10
2023-05-01T22:57:13.922Z,36.78
2023-05-01T22:59:41.051Z,34.78
2023-05-01T23:02:11.043Z,36.20
2023-05-01T23:04:37.804Z,36.92
2023-05-01T23:07:04.786Z,37.22
2023-05-01T23:09:32.411Z,39.55
2023-05-01T23:11:59.194Z,36.85
2023-05-01T23:14:26.010Z,41.00
2023-05-01T23:16:53.131Z,46.25
2023-05-01T23:19:22.523Z,42.17
2023-05-01T23:21:50.300Z,39.33
2023-05-01T23:24:19.655Z,39.45
2023-05-01T23:26:46.578Z,38.30
2023-05-01T23:29:14.220Z,40.30
2023-05-01T23:31:46.708Z,47.10
2023-05-01T23:36:47.869Z,37.92
2023-05-01T23:39:16.576Z,40.05
2023-05-01T23:41:43.905Z,37.25
2023-05-01T23:44:11.512Z,38.38
2023-05-01T23:46:38.635Z,39.15
2023-05-01T23:49:05.643Z,42.10
2023-05-01T23:51:32.946Z,41.47
2023-05-01T23:54:00.475Z,39.88
2023-05-01T23:56:27.364Z,37.58
2023-05-01T23:58:54.321Z,38.97
